This is the latest recevied weather packets stored in our database for station/object LIPZ. If no packets are shown the sender has not sent any weather packets the latest 10 day(s).
| Time | Temp. | Humidity | Pressure | Rain* | Wind** | Luminosity | Snow |
|---|---|---|---|---|---|---|---|
| 1777741205 | 21.11° C | 46% | 1020 hPa | - | - | - | - |
| 1777739404 | 21.11° C | 46% | 1021 hPa | - | - | - | - |
| 1777738504 | 22.22° C | 40% | 1021 hPa | - | - | - | - |
| 1777737605 | 22.22° C | 40% | 1021 hPa | - | - | - | - |
| 1777736704 | 22.22° C | 40% | 1021 hPa | - | - | - | - |
| 1777735804 | 22.22° C | 40% | 1021 hPa | - | - | - | - |
| 1777733119 | 22.78° C | 38% | 1022 hPa | - | - | - | - |
| 1777732219 | 22.78° C | 38% | 1022 hPa | - | - | - | - |
| 1777731304 | 22.78° C | 35% | 1022 hPa | - | - | - | - |
| 1777727704 | 22.22° C | 40% | 1023 hPa | - | - | - | - |
| 1777726804 | 22.22° C | 40% | 1023 hPa | - | - | - | - |
| 1777725904 | 21.11° C | 40% | 1024 hPa | - | - | - | - |
| 1777725005 | 21.11° C | 40% | 1024 hPa | - | - | - | - |
| 1777722304 | 20° C | 45% | 1024 hPa | - | - | - | - |
| 1777721405 | 20° C | 45% | 1024 hPa | - | - | - | - |
| 1777718704 | 17.78° C | 52% | 1025 hPa | - | - | - | - |
| 1777715104 | 17.22° C | 48% | 1025 hPa | - | - | - | - |
| 1777714204 | 17.22° C | 48% | 1025 hPa | - | - | - | - |
| 1777711504 | 16.11° C | 51% | 1026 hPa | - | - | - | - |
| 1777710604 | 16.11° C | 51% | 1026 hPa | - | - | - | - |
| 1777709704 | 15° C | 67% | 1026 hPa | - | - | - | - |
| 1777707904 | 13.89° C | 62% | 1026 hPa | - | - | - | - |
| 1777707004 | 13.89° C | 62% | 1026 hPa | - | - | - | - |
| 1777705204 | 12.78° C | 62% | 1026 hPa | - | - | - | - |
| 1777704304 | 12.22° C | 62% | 1026 hPa | - | - | - | - |
* Rain since midnight (hover to see other rain measurements)
** Current wind speed in m/s (hover to see current wind gust speed)